createdAt,value
2023-04-27T00:01:01.710Z,100160.28
2023-04-27T00:03:28.344Z,100169.69
2023-04-27T00:05:55.171Z,100166.00
2023-04-27T00:08:22.022Z,100161.09
2023-04-27T00:10:48.560Z,100164.75
2023-04-27T00:13:15.062Z,100167.66
2023-04-27T00:15:41.726Z,100162.75
2023-04-27T00:18:08.367Z,100163.38
2023-04-27T00:20:34.915Z,100166.81
2023-04-27T00:23:01.441Z,100162.50
2023-04-27T00:25:27.996Z,100160.03
2023-04-27T00:27:54.449Z,100160.38
2023-04-27T00:30:21.040Z,100166.13
2023-04-27T00:32:47.720Z,100151.38
2023-04-27T00:35:14.449Z,100159.56
2023-04-27T00:37:40.948Z,100153.56
2023-04-27T00:40:08.127Z,100155.81
2023-04-27T00:42:35.563Z,100153.47
2023-04-27T00:45:02.493Z,100147.34
2023-04-27T00:47:30.764Z,100149.16
2023-04-27T00:49:57.361Z,100155.53
2023-04-27T00:52:24.010Z,100156.69
2023-04-27T00:54:52.294Z,100150.56
2023-04-27T00:57:19.065Z,100151.66
2023-04-27T00:59:45.591Z,100157.16
2023-04-27T01:02:12.373Z,100154.69
2023-04-27T01:04:39.095Z,100163.69
2023-04-27T01:07:05.668Z,100163.16
2023-04-27T01:09:32.248Z,100172.31
2023-04-27T01:11:58.783Z,100165.41
2023-04-27T01:14:25.295Z,100167.56
2023-04-27T01:16:52.212Z,100179.84
2023-04-27T01:19:18.733Z,100177.44
2023-04-27T01:21:45.452Z,100171.88
2023-04-27T01:24:12.104Z,100179.59
2023-04-27T01:26:38.600Z,100178.06
2023-04-27T01:29:05.153Z,100180.53
2023-04-27T01:31:31.710Z,100190.16
2023-04-27T01:33:58.199Z,100188.03
2023-04-27T01:36:24.732Z,100183.19
2023-04-27T01:38:51.405Z,100195.84
2023-04-27T01:41:17.886Z,100186.03
2023-04-27T01:43:44.381Z,100186.25
2023-04-27T01:46:13.032Z,100192.59
2023-04-27T01:48:41.930Z,100189.56
2023-04-27T01:51:08.487Z,100196.94
2023-04-27T01:53:35.059Z,100195.53
2023-04-27T01:56:01.857Z,100193.94
2023-04-27T01:58:28.480Z,100204.28
2023-04-27T02:00:55.080Z,100199.59
2023-04-27T02:03:21.837Z,100205.34
2023-04-27T02:05:48.466Z,100195.22
2023-04-27T02:08:15.199Z,100206.75
2023-04-27T02:10:41.757Z,100207.00
2023-04-27T02:13:08.572Z,100209.78
2023-04-27T02:15:35.205Z,100213.66
2023-04-27T02:18:02.526Z,100219.69
2023-04-27T02:20:32.955Z,100223.09
2023-04-27T02:22:59.476Z,100217.16
2023-04-27T02:25:26.003Z,100218.19
2023-04-27T02:27:52.639Z,100209.31
2023-04-27T02:30:19.615Z,100218.19
2023-04-27T02:32:46.824Z,100219.38
2023-04-27T02:35:13.601Z,100224.47
2023-04-27T02:37:40.140Z,100223.78
2023-04-27T02:40:07.321Z,100216.13
2023-04-27T02:42:33.914Z,100221.69
2023-04-27T02:45:00.392Z,100215.94
2023-04-27T02:47:26.945Z,100220.72
2023-04-27T02:49:53.476Z,100218.34
2023-04-27T02:52:19.999Z,100230.19
2023-04-27T02:54:46.564Z,100220.16
2023-04-27T02:57:13.082Z,100226.16
2023-04-27T02:59:39.575Z,100232.81
2023-04-27T03:02:06.132Z,100233.97
2023-04-27T03:04:32.715Z,100246.56
2023-04-27T03:06:59.275Z,100235.38
2023-04-27T03:09:25.743Z,100231.34
2023-04-27T03:11:52.273Z,100232.31
2023-04-27T03:14:18.756Z,100235.94
2023-04-27T03:16:45.363Z,100243.09
2023-04-27T03:19:12.288Z,100241.56
2023-04-27T03:21:39.003Z,100239.84
2023-04-27T03:24:05.952Z,100245.88
2023-04-27T03:26:32.544Z,100251.13
2023-04-27T03:28:59.054Z,100248.28
2023-04-27T03:31:25.572Z,100251.63
2023-04-27T03:33:52.078Z,100253.44
2023-04-27T03:36:18.608Z,100254.03
2023-04-27T03:38:45.090Z,100266.75
2023-04-27T03:41:12.416Z,100258.94
2023-04-27T03:43:38.994Z,100267.78
2023-04-27T03:46:05.541Z,100266.66
2023-04-27T03:48:32.081Z,100274.13
2023-04-27T03:51:00.496Z,100268.19
2023-04-27T03:53:26.999Z,100271.72
2023-04-27T03:55:53.475Z,100276.19
2023-04-27T03:58:19.995Z,100273.63
2023-04-27T04:00:46.465Z,100280.09
2023-04-27T04:03:13.150Z,100282.31
2023-04-27T04:05:39.891Z,100281.66
2023-04-27T04:08:06.488Z,100291.47
2023-04-27T04:10:33.021Z,100285.50
2023-04-27T04:12:59.533Z,100283.66
2023-04-27T04:15:26.080Z,100294.25
2023-04-27T04:17:52.627Z,100290.31
2023-04-27T04:20:19.355Z,100287.38
2023-04-27T04:22:45.865Z,100286.81
2023-04-27T04:25:12.468Z,100291.56
2023-04-27T04:27:38.935Z,100301.16
2023-04-27T04:30:06.692Z,100297.59
2023-04-27T04:32:34.005Z,100297.91
2023-04-27T04:35:00.605Z,100308.06
2023-04-27T04:37:27.967Z,100305.53
2023-04-27T04:39:54.514Z,100299.72
2023-04-27T04:42:21.040Z,100300.28
2023-04-27T04:44:47.509Z,100320.56
2023-04-27T04:47:14.062Z,100312.44
2023-04-27T04:49:40.522Z,100320.63
2023-04-27T04:52:07.058Z,100314.22
2023-04-27T04:54:33.585Z,100307.97
2023-04-27T04:57:00.105Z,100313.31
2023-04-27T04:59:26.599Z,100302.88
2023-04-27T05:01:53.174Z,100311.94
2023-04-27T05:04:19.802Z,100321.41
2023-04-27T05:06:46.562Z,100327.31
2023-04-27T05:09:13.229Z,100318.53
2023-04-27T05:11:39.891Z,100326.97
2023-04-27T05:14:06.488Z,100325.94
2023-04-27T05:16:33.060Z,100330.78
2023-04-27T05:18:59.560Z,100329.91
2023-04-27T05:21:26.061Z,100328.03
2023-04-27T05:23:52.630Z,100326.09
2023-04-27T05:26:19.172Z,100324.09
2023-04-27T05:28:45.669Z,100333.97
2023-04-27T05:31:12.334Z,100332.34
2023-04-27T05:33:38.879Z,100327.94
2023-04-27T05:36:05.582Z,100327.09
2023-04-27T05:38:32.132Z,100319.25
2023-04-27T05:40:59.040Z,100314.56
2023-04-27T05:43:25.813Z,100316.66
2023-04-27T05:45:52.771Z,100313.88
2023-04-27T05:48:19.968Z,100311.66
2023-04-27T05:50:46.458Z,100307.53
2023-04-27T05:53:13.000Z,100307.19
2023-04-27T05:55:39.513Z,100307.50
2023-04-27T05:58:08.697Z,100310.03
2023-04-27T06:00:35.702Z,100304.94
2023-04-27T06:03:02.317Z,100308.53
2023-04-27T06:05:29.127Z,100311.88
2023-04-27T06:07:55.671Z,100314.75
2023-04-27T06:10:22.223Z,100327.41
2023-04-27T06:12:48.684Z,100317.63
2023-04-27T06:15:15.284Z,100316.22
2023-04-27T06:17:41.809Z,100313.75
2023-04-27T06:20:08.648Z,100306.03
2023-04-27T06:22:36.350Z,100299.41
2023-04-27T06:25:03.629Z,100297.06
2023-04-27T06:27:30.139Z,100298.38
2023-04-27T06:29:56.979Z,100300.00
2023-04-27T06:32:23.564Z,100307.25
2023-04-27T06:34:50.432Z,100311.03
2023-04-27T06:37:17.145Z,100311.66
2023-04-27T06:39:44.608Z,100310.75
2023-04-27T06:42:11.295Z,100307.53
2023-04-27T06:44:38.577Z,100299.03
2023-04-27T06:47:05.532Z,100293.91
2023-04-27T06:49:31.933Z,100298.38
2023-04-27T06:51:58.490Z,100298.88
2023-04-27T06:54:25.358Z,100296.88
2023-04-27T06:56:51.722Z,100298.22
2023-04-27T06:59:18.288Z,100293.56
2023-04-27T07:01:44.894Z,100292.78
2023-04-27T07:04:11.521Z,100291.81
2023-04-27T07:06:38.379Z,100285.69
2023-04-27T07:09:07.968Z,100294.53
2023-04-27T07:11:43.117Z,100292.34
2023-04-27T07:14:09.675Z,100297.66
2023-04-27T07:16:36.180Z,100296.63
2023-04-27T07:19:02.997Z,100292.41
2023-04-27T07:21:29.532Z,100298.00
2023-04-27T07:23:56.220Z,100304.59
2023-04-27T07:26:22.654Z,100299.84
2023-04-27T07:28:49.580Z,100299.75
2023-04-27T07:31:17.028Z,100302.31
2023-04-27T07:33:43.544Z,100298.19
2023-04-27T07:36:10.093Z,100305.69
2023-04-27T07:38:36.664Z,100294.38
2023-04-27T07:41:03.340Z,100293.75
2023-04-27T07:43:30.623Z,100287.13
2023-04-27T07:45:57.170Z,100289.28
2023-04-27T07:48:23.708Z,100293.94
2023-04-27T07:50:50.569Z,100298.44
2023-04-27T07:53:17.568Z,100300.91
2023-04-27T07:55:44.087Z,100297.03
2023-04-27T07:58:10.922Z,100293.53
2023-04-27T08:00:37.595Z,100298.63
2023-04-27T08:03:04.530Z,100298.75
2023-04-27T08:05:31.707Z,100309.22
2023-04-27T08:07:58.649Z,100308.19
2023-04-27T08:10:25.054Z,100304.59
2023-04-27T08:12:51.647Z,100302.03
2023-04-27T08:15:18.083Z,100304.31
2023-04-27T08:17:44.588Z,100307.06
2023-04-27T08:20:11.374Z,100305.03
2023-04-27T08:22:41.725Z,100296.28
2023-04-27T08:25:09.376Z,100294.28
2023-04-27T08:27:39.992Z,100295.09
2023-04-27T08:30:07.210Z,100292.66
2023-04-27T08:32:33.849Z,100303.69
2023-04-27T08:35:00.420Z,100295.94
2023-04-27T08:37:26.973Z,100292.56
2023-04-27T08:39:54.687Z,100286.97
2023-04-27T08:42:21.218Z,100285.69
2023-04-27T08:44:47.684Z,100294.66
2023-04-27T08:47:14.217Z,100289.09
2023-04-27T08:49:40.711Z,100295.59
2023-04-27T08:52:15.289Z,100305.47
2023-04-27T08:54:42.404Z,100299.22
2023-04-27T08:57:12.902Z,100301.69
2023-04-27T08:59:40.440Z,100290.28
2023-04-27T09:02:17.988Z,100295.63
2023-04-27T09:04:44.764Z,100299.88
2023-04-27T09:07:16.215Z,100301.13
2023-04-27T09:09:43.648Z,100303.41
2023-04-27T09:12:20.667Z,100295.56
2023-04-27T09:15:01.374Z,100299.69
2023-04-27T09:17:29.001Z,100301.34
2023-04-27T09:20:09.432Z,100296.97
2023-04-27T09:22:54.366Z,100302.25
2023-04-27T09:25:28.061Z,100312.03
2023-04-27T09:27:55.806Z,100306.25
2023-04-27T09:30:22.364Z,100304.63
2023-04-27T09:33:00.147Z,100304.59
2023-04-27T09:35:28.807Z,100303.00
2023-04-27T09:37:56.012Z,100305.59
2023-04-27T09:40:24.956Z,100298.31
2023-04-27T09:42:51.808Z,100306.53
2023-04-27T09:45:18.896Z,100308.72
2023-04-27T09:47:46.079Z,100305.31
2023-04-27T09:50:13.925Z,100293.63
2023-04-27T09:52:40.654Z,100302.72
2023-04-27T09:55:09.823Z,100297.28
2023-04-27T09:57:51.522Z,100303.00
2023-04-27T10:00:18.047Z,100306.41
2023-04-27T10:03:25.695Z,100303.16
2023-04-27T10:05:57.979Z,100297.50
2023-04-27T10:08:24.716Z,100300.34
2023-04-27T10:10:53.435Z,100289.34
2023-04-27T10:13:25.489Z,100292.59
2023-04-27T10:15:53.240Z,100304.41
2023-04-27T10:18:54.009Z,100298.66
2023-04-27T10:21:20.771Z,100294.00
2023-04-27T10:23:50.751Z,100304.59
2023-04-27T10:26:24.685Z,100314.22
2023-04-27T10:29:08.491Z,100310.66
2023-04-27T10:31:36.136Z,100305.56
2023-04-27T10:34:10.781Z,100300.44
2023-04-27T10:36:40.467Z,100306.91
2023-04-27T10:39:21.554Z,100298.75
2023-04-27T10:41:55.252Z,100311.59
2023-04-27T10:44:25.906Z,100289.22
2023-04-27T10:46:53.672Z,100296.47
2023-04-27T10:49:21.058Z,100305.16
2023-04-27T10:51:49.812Z,100298.88
2023-04-27T10:54:16.374Z,100310.09
2023-04-27T10:56:42.927Z,100307.66
2023-04-27T10:59:10.182Z,100307.19
2023-04-27T11:01:37.459Z,100299.16
2023-04-27T11:04:04.365Z,100296.94
2023-04-27T11:06:31.680Z,100294.56
2023-04-27T11:08:58.261Z,100299.38
2023-04-27T11:11:24.863Z,100298.22
2023-04-27T11:13:51.634Z,100314.06
2023-04-27T11:16:18.291Z,100308.44
2023-04-27T11:18:44.926Z,100313.66
2023-04-27T11:21:18.449Z,100312.78
2023-04-27T11:23:46.241Z,100309.19
2023-04-27T11:26:18.336Z,100309.16
2023-04-27T11:29:05.710Z,100312.59
2023-04-27T11:31:40.507Z,100310.25
2023-04-27T11:34:08.274Z,100308.78
2023-04-27T11:36:35.110Z,100307.72
2023-04-27T11:39:01.933Z,100318.69
2023-04-27T11:41:34.747Z,100316.97
2023-04-27T11:44:08.822Z,100315.81
2023-04-27T11:46:36.809Z,100313.97
2023-04-27T11:49:07.505Z,100308.66
2023-04-27T11:51:34.512Z,100306.28
2023-04-27T11:54:06.430Z,100315.59
2023-04-27T11:56:38.369Z,100306.78
2023-04-27T11:59:05.360Z,100306.81
2023-04-27T12:01:37.997Z,100314.34
2023-04-27T12:04:05.224Z,100306.22
2023-04-27T12:06:33.507Z,100313.66
2023-04-27T12:09:00.340Z,100314.66
2023-04-27T12:11:27.388Z,100312.75
2023-04-27T12:13:54.921Z,100303.31
2023-04-27T12:16:21.656Z,100299.97
2023-04-27T12:18:50.827Z,100313.91
2023-04-27T12:21:18.186Z,100296.91
2023-04-27T12:23:44.895Z,100293.69
2023-04-27T12:26:14.421Z,100295.88
2023-04-27T12:28:41.793Z,100292.50
2023-04-27T12:31:08.417Z,100293.31
2023-04-27T12:33:35.045Z,100300.19
2023-04-27T12:36:01.628Z,100292.00
2023-04-27T12:38:28.154Z,100298.69
2023-04-27T12:40:54.674Z,100296.66
2023-04-27T12:43:21.188Z,100305.00
2023-04-27T12:45:47.702Z,100301.22
2023-04-27T12:48:15.577Z,100297.81
2023-04-27T12:50:43.399Z,100298.22
2023-04-27T12:53:09.867Z,100291.44
2023-04-27T12:55:36.363Z,100302.91
2023-04-27T12:58:03.110Z,100295.81
2023-04-27T13:00:29.883Z,100289.91
2023-04-27T13:02:56.988Z,100293.19
2023-04-27T13:05:23.774Z,100293.84
2023-04-27T13:07:50.362Z,100291.16
2023-04-27T13:10:16.909Z,100294.78
2023-04-27T13:12:43.682Z,100290.16
2023-04-27T13:15:10.283Z,100300.31
2023-04-27T13:17:37.096Z,100310.44
2023-04-27T13:20:03.797Z,100311.00
2023-04-27T13:22:30.373Z,100297.16
2023-04-27T13:24:56.912Z,100300.94
2023-04-27T13:27:23.589Z,100314.28
2023-04-27T13:29:50.132Z,100316.41
2023-04-27T13:32:16.950Z,100311.22
2023-04-27T13:34:43.349Z,100326.31
2023-04-27T13:37:09.891Z,100325.88
2023-04-27T13:39:36.379Z,100335.28
2023-04-27T13:42:03.219Z,100331.66
2023-04-27T13:44:29.617Z,100329.06
2023-04-27T13:46:56.139Z,100327.00
2023-04-27T13:49:22.676Z,100329.22
2023-04-27T13:51:49.200Z,100337.94
2023-04-27T13:54:16.185Z,100343.16
2023-04-27T13:56:42.723Z,100347.25
2023-04-27T13:59:09.206Z,100339.16
2023-04-27T14:01:35.911Z,100338.31
2023-04-27T14:04:02.713Z,100332.69
2023-04-27T14:06:29.397Z,100335.94
2023-04-27T14:08:55.937Z,100328.28
2023-04-27T14:11:22.476Z,100331.06
2023-04-27T14:13:49.300Z,100342.50
2023-04-27T14:16:15.772Z,100333.47
2023-04-27T14:18:42.294Z,100335.28
2023-04-27T14:21:08.880Z,100344.13
2023-04-27T14:23:35.379Z,100349.41
2023-04-27T14:26:01.932Z,100351.06
2023-04-27T14:28:28.446Z,100359.75
2023-04-27T14:30:55.290Z,100360.91
2023-04-27T14:33:21.638Z,100370.88
2023-04-27T14:35:48.235Z,100366.38
2023-04-27T14:38:14.739Z,100363.97
2023-04-27T14:40:41.285Z,100357.09
2023-04-27T14:43:07.774Z,100363.94
2023-04-27T14:45:44.084Z,100363.56
2023-04-27T14:48:17.196Z,100373.19
2023-04-27T14:50:43.799Z,100374.78
2023-04-27T14:53:10.290Z,100376.78
2023-04-27T14:55:36.801Z,100384.19
2023-04-27T14:58:03.295Z,100391.44
2023-04-27T15:00:29.830Z,100384.38
2023-04-27T15:02:56.385Z,100393.03
2023-04-27T15:05:23.081Z,100393.47
2023-04-27T15:07:49.567Z,100396.69
2023-04-27T15:10:16.103Z,100391.50
2023-04-27T15:12:43.809Z,100398.41
2023-04-27T15:15:10.750Z,100393.78
2023-04-27T15:17:37.191Z,100394.00
2023-04-27T15:20:04.099Z,100394.63
2023-04-27T15:22:30.585Z,100400.25
2023-04-27T15:24:57.202Z,100402.25
2023-04-27T15:27:25.242Z,100401.56
2023-04-27T15:29:54.734Z,100407.53
2023-04-27T15:32:21.295Z,100408.16
2023-04-27T15:34:48.265Z,100405.59
2023-04-27T15:37:14.643Z,100405.72
2023-04-27T15:39:41.146Z,100411.88
2023-04-27T15:42:07.710Z,100412.66
2023-04-27T15:44:34.221Z,100418.66
2023-04-27T15:47:01.334Z,100421.34
2023-04-27T15:49:28.241Z,100416.81
2023-04-27T15:51:54.724Z,100413.22
2023-04-27T15:54:21.286Z,100422.81
2023-04-27T15:56:47.832Z,100426.00
2023-04-27T15:59:14.558Z,100427.59
2023-04-27T16:01:41.238Z,100427.19
2023-04-27T16:04:07.982Z,100424.06
2023-04-27T16:06:35.811Z,100436.94
2023-04-27T16:09:02.930Z,100435.53
2023-04-27T16:11:32.452Z,100439.28
2023-04-27T16:13:59.025Z,100440.72
2023-04-27T16:16:27.152Z,100434.56
2023-04-27T16:18:53.585Z,100444.28
2023-04-27T16:21:20.174Z,100441.34
2023-04-27T16:23:46.700Z,100449.78
2023-04-27T16:26:13.209Z,100447.63
2023-04-27T16:28:39.757Z,100454.66
2023-04-27T16:31:06.337Z,100458.22
2023-04-27T16:33:32.837Z,100462.53
2023-04-27T16:35:59.413Z,100462.34
2023-04-27T16:38:25.950Z,100473.50
2023-04-27T16:40:52.639Z,100472.19
2023-04-27T16:43:19.290Z,100473.06
2023-04-27T16:45:45.978Z,100465.31
2023-04-27T16:48:12.569Z,100469.91
2023-04-27T16:50:39.287Z,100473.69
2023-04-27T16:53:07.641Z,100472.06
2023-04-27T16:55:34.842Z,100478.34
2023-04-27T16:58:01.666Z,100477.16
2023-04-27T17:00:28.914Z,100490.41
2023-04-27T17:02:55.529Z,100496.97
2023-04-27T17:05:22.167Z,100495.06
2023-04-27T17:07:48.761Z,100497.06
2023-04-27T17:10:15.333Z,100495.03
2023-04-27T17:12:41.810Z,100508.41
2023-04-27T17:15:10.640Z,100513.75
2023-04-27T17:17:37.402Z,100516.88
2023-04-27T17:20:04.367Z,100517.66
2023-04-27T17:22:30.891Z,100521.63
2023-04-27T17:24:57.372Z,100520.72
2023-04-27T17:27:23.892Z,100526.50
2023-04-27T17:29:51.918Z,100528.28
2023-04-27T17:32:18.435Z,100545.25
2023-04-27T17:34:44.931Z,100539.22
2023-04-27T17:37:11.449Z,100543.22
2023-04-27T17:39:37.971Z,100547.16
2023-04-27T17:42:04.460Z,100548.41
2023-04-27T17:44:31.042Z,100553.31
2023-04-27T17:46:57.609Z,100553.84
2023-04-27T17:49:24.136Z,100562.97
2023-04-27T17:51:50.647Z,100562.25
2023-04-27T17:54:17.106Z,100556.63
2023-04-27T17:56:44.141Z,100569.44
2023-04-27T17:59:10.656Z,100575.06
2023-04-27T18:01:37.148Z,100573.00
2023-04-27T18:04:04.884Z,100577.31
2023-04-27T18:06:31.524Z,100576.31
2023-04-27T18:08:57.990Z,100585.44
2023-04-27T18:11:24.519Z,100589.84
2023-04-27T18:13:51.014Z,100595.19
2023-04-27T18:16:17.514Z,100602.91
2023-04-27T18:18:44.096Z,100602.16
2023-04-27T18:21:10.625Z,100606.66
2023-04-27T18:23:37.913Z,100606.41
2023-04-27T18:26:04.576Z,100609.53
2023-04-27T18:28:31.062Z,100614.31
2023-04-27T18:30:57.566Z,100619.19
2023-04-27T18:33:24.093Z,100619.03
2023-04-27T18:35:50.684Z,100616.19
2023-04-27T18:38:17.197Z,100615.25
2023-04-27T18:40:43.806Z,100624.03
2023-04-27T18:43:10.372Z,100636.34
2023-04-27T18:45:36.918Z,100632.81
2023-04-27T18:48:03.641Z,100634.59
2023-04-27T18:50:30.211Z,100638.50
2023-04-27T18:52:57.636Z,100644.41
2023-04-27T18:55:24.168Z,100648.44
2023-04-27T18:57:50.729Z,100649.59
2023-04-27T19:00:17.360Z,100642.63
2023-04-27T19:02:43.939Z,100649.44
2023-04-27T19:05:13.482Z,100648.78
2023-04-27T19:07:40.509Z,100651.47
2023-04-27T19:10:07.714Z,100662.13
2023-04-27T19:12:34.207Z,100665.13
2023-04-27T19:15:00.749Z,100666.00
2023-04-27T19:17:27.459Z,100662.00
2023-04-27T19:19:54.216Z,100673.44
2023-04-27T19:22:20.798Z,100668.78
2023-04-27T19:24:47.760Z,100670.56
2023-04-27T19:27:14.352Z,100668.06
2023-04-27T19:29:57.309Z,100672.03
2023-04-27T19:32:24.600Z,100679.09
2023-04-27T19:34:50.983Z,100679.97
2023-04-27T19:37:17.535Z,100681.53
2023-04-27T19:39:44.052Z,100678.28
2023-04-27T19:42:11.781Z,100685.91
2023-04-27T19:44:38.248Z,100689.56
2023-04-27T19:47:04.792Z,100692.00
2023-04-27T19:49:32.153Z,100688.19
2023-04-27T19:51:59.162Z,100688.28
2023-04-27T19:54:26.875Z,100688.97
2023-04-27T19:56:53.960Z,100687.94
2023-04-27T19:59:20.548Z,100687.25
2023-04-27T20:01:47.330Z,100688.44
2023-04-27T20:04:14.635Z,100689.78
2023-04-27T20:06:41.710Z,100690.09
2023-04-27T20:09:08.414Z,100689.59
2023-04-27T20:11:35.282Z,100691.16
2023-04-27T20:14:01.886Z,100696.03
2023-04-27T20:16:28.466Z,100688.91
2023-04-27T20:18:55.241Z,100697.28
2023-04-27T20:21:21.879Z,100698.03
2023-04-27T20:23:49.001Z,100705.44
2023-04-27T20:26:15.548Z,100697.09
2023-04-27T20:28:42.633Z,100699.66
2023-04-27T20:31:09.445Z,100692.06
2023-04-27T20:33:36.043Z,100700.78
2023-04-27T20:36:14.174Z,100698.97
2023-04-27T20:38:43.684Z,100704.78
2023-04-27T20:41:10.287Z,100708.06
2023-04-27T20:43:36.840Z,100699.94
2023-04-27T20:46:03.584Z,100706.97
2023-04-27T20:48:30.320Z,100696.03
2023-04-27T20:50:57.056Z,100696.63
2023-04-27T20:53:23.792Z,100700.22
2023-04-27T20:55:50.532Z,100704.81
2023-04-27T20:58:17.254Z,100706.56
2023-04-27T21:00:44.034Z,100702.50
2023-04-27T21:03:11.093Z,100698.91
2023-04-27T21:05:37.658Z,100702.38
2023-04-27T21:08:04.290Z,100704.88
2023-04-27T21:10:30.782Z,100697.69
2023-04-27T21:12:57.255Z,100706.09
2023-04-27T21:15:23.806Z,100706.78
2023-04-27T21:17:50.269Z,100710.91
2023-04-27T21:20:16.901Z,100709.47
2023-04-27T21:22:43.420Z,100713.22
2023-04-27T21:25:10.099Z,100709.97
2023-04-27T21:27:36.720Z,100707.25
2023-04-27T21:30:03.357Z,100712.59
2023-04-27T21:32:29.850Z,100709.22
2023-04-27T21:34:56.376Z,100710.34
2023-04-27T21:37:22.868Z,100708.28
2023-04-27T21:39:49.354Z,100712.16
2023-04-27T21:42:15.849Z,100714.06
2023-04-27T21:44:42.326Z,100715.09
2023-04-27T21:47:08.853Z,100715.81
2023-04-27T21:49:35.341Z,100722.19
2023-04-27T21:52:01.854Z,100717.19
2023-04-27T21:54:28.326Z,100718.38
2023-04-27T21:56:54.818Z,100715.00
2023-04-27T21:59:21.342Z,100716.66
2023-04-27T22:01:48.043Z,100722.09
2023-04-27T22:04:14.949Z,100724.91
2023-04-27T22:06:42.239Z,100723.19
2023-04-27T22:09:08.800Z,100725.00
2023-04-27T22:11:35.271Z,100719.66
2023-04-27T22:14:01.779Z,100722.50
2023-04-27T22:16:28.303Z,100729.81
2023-04-27T22:18:54.866Z,100724.72
2023-04-27T22:21:21.441Z,100721.59
2023-04-27T22:23:48.342Z,100723.50
2023-04-27T22:26:14.851Z,100723.22
2023-04-27T22:28:41.391Z,100723.69
2023-04-27T22:31:08.017Z,100728.22
2023-04-27T22:33:35.671Z,100723.03
2023-04-27T22:36:02.097Z,100717.59
2023-04-27T22:38:28.850Z,100729.84
2023-04-27T22:40:55.325Z,100727.00
2023-04-27T22:43:21.807Z,100726.31
2023-04-27T22:45:48.265Z,100730.72
2023-04-27T22:48:14.748Z,100729.75
2023-04-27T22:50:41.235Z,100734.19
2023-04-27T22:53:07.727Z,100728.81
2023-04-27T22:55:34.225Z,100730.38
2023-04-27T22:58:00.761Z,100735.03
2023-04-27T23:00:27.283Z,100730.00
2023-04-27T23:02:53.980Z,100732.84
2023-04-27T23:05:20.614Z,100732.41
2023-04-27T23:07:47.121Z,100735.25
2023-04-27T23:10:13.638Z,100730.81
2023-04-27T23:12:40.133Z,100735.06
2023-04-27T23:15:07.162Z,100738.69
2023-04-27T23:17:33.766Z,100733.19
2023-04-27T23:20:02.011Z,100727.81
2023-04-27T23:22:29.418Z,100728.22
2023-04-27T23:24:55.929Z,100722.66
2023-04-27T23:27:22.562Z,100722.25
2023-04-27T23:29:49.063Z,100725.88
2023-04-27T23:32:15.551Z,100728.16
2023-04-27T23:34:42.119Z,100726.63
2023-04-27T23:37:08.659Z,100730.09
2023-04-27T23:39:35.173Z,100725.47
2023-04-27T23:42:01.662Z,100725.16
2023-04-27T23:44:28.116Z,100722.09
2023-04-27T23:46:54.606Z,100721.91
2023-04-27T23:49:21.131Z,100729.53
2023-04-27T23:51:47.648Z,100721.34
2023-04-27T23:54:14.331Z,100730.09
2023-04-27T23:56:41.127Z,100731.81
2023-04-27T23:59:07.646Z,100735.53
